Time;durP1;ratioP1;P1;durP2;ratioP2;P2;SDS_P1;SDS_P2;PMS_P1;PMS_P2;Temp;Humidity;BMP_temperature;BMP_pressure;BME280_temperature;BME280_humidity;BME280_pressure;Samples;Min_cycle;Max_cycle;Signal;HPM_P1;HPM_P2
2022/07/03 00:00:38;;;;;;;9.05;5.07;;;19.60;99.90;;;;;;5118100;28;20492;-54
2022/07/03 00:03:04;;;;;;;9.95;5.32;;;19.60;99.90;;;;;;5117820;28;20039;-54
2022/07/03 00:05:30;;;;;;;10.07;5.78;;;19.60;99.90;;;;;;5118144;28;20073;-54
2022/07/03 00:07:57;;;;;;;8.82;5.15;;;19.50;99.90;;;;;;5118125;28;20043;-54
2022/07/03 00:10:23;;;;;;;11.15;6.18;;;19.60;99.90;;;;;;5118161;28;20032;-54
2022/07/03 00:12:48;;;;;;;10.18;6.47;;;19.50;99.90;;;;;;5117765;28;20061;-54
2022/07/03 00:15:14;;;;;;;14.27;7.28;;;19.50;99.90;;;;;;5118058;28;20024;-54
2022/07/03 00:17:41;;;;;;;12.10;6.53;;;19.60;99.90;;;;;;5117972;28;20070;-54
2022/07/03 00:20:08;;;;;;;15.70;7.07;;;19.50;99.90;;;;;;5116468;28;20088;-54
2022/07/03 00:22:37;;;;;;;14.18;7.55;;;19.50;99.90;;;;;;5115901;28;20039;-54
2022/07/03 00:25:05;;;;;;;12.98;7.18;;;19.50;99.90;;;;;;5117844;28;20044;-54
2022/07/03 00:27:33;;;;;;;9.52;6.75;;;19.50;99.90;;;;;;5117749;28;20020;-54
2022/07/03 00:30:00;;;;;;;11.75;6.45;;;19.40;99.90;;;;;;5116424;28;20606;-54
2022/07/03 00:32:27;;;;;;;9.52;5.70;;;19.30;99.90;;;;;;5117619;28;20063;-54
2022/07/03 00:34:56;;;;;;;8.32;5.75;;;19.30;99.90;;;;;;5117603;28;20049;-54
2022/07/03 00:37:22;;;;;;;8.30;5.30;;;19.40;99.90;;;;;;5117617;28;20422;-54
2022/07/03 00:39:49;;;;;;;8.43;4.90;;;19.40;99.90;;;;;;5117604;28;20016;-53
2022/07/03 00:42:16;;;;;;;9.02;5.57;;;19.40;99.90;;;;;;5117356;28;20389;-54
2022/07/03 00:44:53;;;;;;;12.95;5.80;;;19.40;99.90;;;;;;5117419;28;20039;-53
2022/07/03 00:47:21;;;;;;;8.25;5.53;;;19.30;99.90;;;;;;5117430;28;20042;-54
2022/07/03 00:49:50;;;;;;;8.50;5.60;;;19.30;99.90;;;;;;5117415;28;20031;-54
2022/07/03 00:52:17;;;;;;;9.35;5.50;;;19.20;99.90;;;;;;5117328;28;20023;-54
2022/07/03 00:54:54;;;;;;;10.40;5.78;;;19.20;99.90;;;;;;5117031;28;20031;-54
2022/07/03 00:57:21;;;;;;;7.82;5.18;;;19.20;99.90;;;;;;5117333;28;20032;-54
2022/07/03 00:59:48;;;;;;;10.65;5.68;;;19.10;99.90;;;;;;5117278;28;20027;-54
2022/07/03 01:02:45;;;;;;;6.63;5.05;;;19.10;99.90;;;;;;5116866;28;20451;-54
2022/07/03 01:05:39;;;;;;;10.68;6.43;;;19.10;99.90;;;;;;5098623;28;20051;-54
2022/07/03 01:08:30;;;;;;;8.90;5.93;;;19.00;99.90;;;;;;5117076;28;20043;-54
2022/07/03 01:11:21;;;;;;;10.57;5.43;;;19.00;99.90;;;;;;5117050;28;20043;-54
2022/07/03 01:13:53;;;;;;;;;;;19.00;99.90;;;;;;5117318;28;20035;-54
2022/07/03 01:16:30;;;;;;;9.43;6.00;;;19.00;99.90;;;;;;5116766;28;19912;-54
2022/07/03 01:19:26;;;;;;;9.57;5.60;;;19.00;99.90;;;;;;5116725;28;20051;-54
2022/07/03 01:22:24;;;;;;;7.68;5.60;;;19.00;99.90;;;;;;5116663;28;20023;-54
2022/07/03 01:25:06;;;;;;;9.73;5.97;;;19.00;99.90;;;;;;5116687;28;20032;-53
2022/07/03 01:27:58;;;;;;;8.20;5.82;;;19.00;99.90;;;;;;5116615;28;20388;-54
2022/07/03 01:30:27;;;;;;;8.10;5.70;;;18.90;99.90;;;;;;5116612;28;20032;-54
2022/07/03 01:33:04;;;;;;;10.35;6.10;;;18.90;99.90;;;;;;5114092;28;20119;-54
2022/07/03 01:35:36;;;;;;;10.20;6.60;;;19.00;99.90;;;;;;5116331;28;20028;-54
2022/07/03 01:38:06;;;;;;;10.13;6.45;;;19.00;99.90;;;;;;5116298;28;20028;-54
2022/07/03 01:40:34;;;;;;;8.90;6.20;;;19.00;99.90;;;;;;5116162;28;20034;-54
2022/07/03 01:43:03;;;;;;;7.93;5.32;;;18.90;99.90;;;;;;5116175;28;20024;-53
2022/07/03 01:45:32;;;;;;;10.13;6.03;;;19.00;99.90;;;;;;5116277;28;20020;-54
2022/07/03 01:48:00;;;;;;;8.32;5.30;;;19.00;99.90;;;;;;5116124;28;20039;-54
2022/07/03 01:50:28;;;;;;;8.48;5.78;;;19.00;99.90;;;;;;5116247;28;20558;-54
2022/07/03 01:52:56;;;;;;;7.47;5.07;;;18.90;99.90;;;;;;5115974;28;20035;-54
2022/07/03 01:55:23;;;;;;;9.20;5.45;;;18.90;99.90;;;;;;5116077;28;20035;-54
2022/07/03 01:57:50;;;;;;;9.95;5.78;;;18.80;99.90;;;;;;5116173;28;20051;-54
2022/07/03 02:00:21;;;;;;;10.23;6.13;;;18.70;99.90;;;;;;5115994;28;20045;-54
2022/07/03 02:03:02;;;;;;;8.73;5.65;;;18.80;99.90;;;;;;5115769;28;20386;-54
2022/07/03 02:05:45;;;;;;;7.30;5.85;;;18.80;99.90;;;;;;5115879;28;20380;-54
2022/07/03 02:08:45;;;;;;;9.80;5.93;;;18.80;99.90;;;;;;5115808;28;20039;-54
2022/07/03 02:11:20;;;;;;;11.90;6.22;;;18.70;99.90;;;;;;5106322;28;20039;-54
2022/07/03 02:13:58;;;;;;;11.00;5.68;;;18.70;99.90;;;;;;5114423;28;20036;-54
2022/07/03 02:16:26;;;;;;;8.32;5.63;;;18.80;99.90;;;;;;5115859;28;20047;-54
2022/07/03 02:19:21;;;;;;;8.75;6.18;;;18.60;99.90;;;;;;5115649;28;20020;-54
2022/07/03 02:21:50;;;;;;;8.65;5.82;;;18.60;99.90;;;;;;5114418;28;20039;-54
2022/07/03 02:24:25;;;;;;;7.40;5.82;;;18.70;99.90;;;;;;5114000;28;20047;-54
2022/07/03 02:27:04;;;;;;;12.40;6.57;;;18.60;99.90;;;;;;5115478;28;20538;-54
2022/07/03 02:29:33;;;;;;;9.35;5.80;;;18.50;99.90;;;;;;5115430;28;20028;-54
2022/07/03 02:32:03;;;;;;;11.20;6.22;;;18.60;99.90;;;;;;5115436;28;20034;-54
2022/07/03 02:34:31;;;;;;;6.28;5.00;;;18.60;99.90;;;;;;5115157;28;20118;-54
2022/07/03 02:37:14;;;;;;;7.68;5.35;;;18.60;99.90;;;;;;5115395;28;20111;-54
2022/07/03 02:39:59;;;;;;;10.13;5.65;;;18.50;99.90;;;;;;5115284;28;20107;-54
2022/07/03 02:42:55;;;;;;;8.63;5.55;;;18.40;99.90;;;;;;5115218;28;20023;-54
2022/07/03 02:45:25;;;;;;;9.10;6.20;;;18.40;99.90;;;;;;5114894;28;20036;-54
2022/07/03 02:47:56;;;;;;;7.55;6.00;;;18.30;99.90;;;;;;5115238;28;20039;-54
2022/07/03 02:50:27;;;;;;;9.18;6.10;;;18.30;99.90;;;;;;5115031;28;20445;-54
2022/07/03 02:53:27;;;;;;;7.35;5.28;;;18.30;99.90;;;;;;5115076;28;20031;-54
2022/07/03 02:56:07;;;;;;;6.70;5.32;;;18.40;99.90;;;;;;5115120;28;20461;-54
2022/07/03 02:59:05;;;;;;;11.55;5.57;;;18.30;99.90;;;;;;5115009;28;20072;-54
2022/07/03 03:01:34;;;;;;;11.60;5.63;;;18.40;99.90;;;;;;5114890;28;20031;-54
2022/07/03 03:04:31;;;;;;;9.32;5.93;;;18.30;99.90;;;;;;5114652;28;20063;-54
2022/07/03 03:07:14;;;;;;;6.78;5.40;;;18.20;99.90;;;;;;5114821;28;20127;-54
2022/07/03 03:09:49;;;;;;;10.00;6.25;;;18.20;99.90;;;;;;5115149;28;20051;-54
2022/07/03 03:12:19;;;;;;;11.75;6.20;;;18.20;99.90;;;;;;5114985;28;20039;-54
2022/07/03 03:14:48;;;;;;;;;;;18.10;99.90;;;;;;5115401;28;20076;-54
2022/07/03 03:17:27;;;;;;;8.13;5.30;;;18.20;99.90;;;;;;5114869;28;19908;-54
2022/07/03 03:19:57;;;;;;;11.35;6.03;;;18.20;99.90;;;;;;5114815;28;20039;-54
2022/07/03 03:22:23;;;;;;;;;;;18.10;99.90;;;;;;5115326;28;20020;-54
2022/07/03 03:24:50;;;;;;;12.15;5.80;;;18.20;99.90;;;;;;5114880;28;19915;-54
2022/07/03 03:27:17;;;;;;;13.38;6.65;;;18.20;99.90;;;;;;5114780;28;20034;-54
2022/07/03 03:29:43;;;;;;;7.80;6.80;;;18.20;99.90;;;;;;5114775;28;20034;-54
2022/07/03 03:32:11;;;;;;;8.95;6.68;;;18.20;99.90;;;;;;5114759;28;20036;-54
2022/07/03 03:34:39;;;;;;;10.80;7.57;;;18.20;99.90;;;;;;5114738;28;20016;-54
2022/07/03 03:37:05;;;;;;;11.00;7.85;;;18.30;99.90;;;;;;5114734;28;20031;-54
2022/07/03 03:39:31;;;;;;;11.95;7.10;;;18.30;99.90;;;;;;5114658;28;20350;-54
2022/07/03 03:42:00;;;;;;;10.05;7.68;;;18.30;99.90;;;;;;5114639;28;20423;-54
2022/07/03 03:44:27;;;;;;;12.60;7.53;;;18.30;99.90;;;;;;5114708;28;20019;-54
2022/07/03 03:46:54;;;;;;;11.55;6.85;;;18.30;99.90;;;;;;5114577;28;20036;-54
2022/07/03 03:49:20;;;;;;;7.85;6.60;;;18.40;99.90;;;;;;5114721;28;20026;-53
2022/07/03 03:51:46;;;;;;;11.43;6.75;;;18.50;99.90;;;;;;5114411;28;20023;-54
2022/07/03 03:54:12;;;;;;;7.05;5.97;;;18.50;99.90;;;;;;5114375;28;20039;-54
2022/07/03 03:56:40;;;;;;;8.20;6.15;;;18.50;99.90;;;;;;5116421;28;20419;-54
2022/07/03 03:59:06;;;;;;;9.32;5.47;;;18.60;99.90;;;;;;5118338;28;20033;-54
2022/07/03 04:01:31;;;;;;;11.10;6.68;;;18.70;99.90;;;;;;5118311;28;20075;-54
2022/07/03 04:03:59;;;;;;;10.68;5.90;;;18.80;99.90;;;;;;5118147;28;20074;-54
2022/07/03 04:06:25;;;;;;;11.98;6.90;;;18.70;99.90;;;;;;5118064;28;20027;-54
2022/07/03 04:08:51;;;;;;;12.88;6.32;;;18.70;99.90;;;;;;5116874;28;20031;-54
2022/07/03 04:11:18;;;;;;;10.02;6.45;;;18.80;99.90;;;;;;5118074;28;20128;-54
2022/07/03 04:13:45;;;;;;;12.15;7.05;;;18.80;99.90;;;;;;5117907;28;20035;-54
2022/07/03 04:16:11;;;;;;;10.65;6.45;;;18.80;99.90;;;;;;5117984;28;20027;-54
2022/07/03 04:18:38;;;;;;;14.93;8.52;;;18.90;99.90;;;;;;5118048;28;20431;-54
2022/07/03 04:21:04;;;;;;;8.43;6.78;;;19.00;99.90;;;;;;5117854;27;20035;-54
2022/07/03 04:23:30;;;;;;;12.85;8.48;;;19.10;99.90;;;;;;5117805;28;20027;-54
2022/07/03 04:26:02;;;;;;;10.95;7.47;;;19.20;99.90;;;;;;5117708;28;20077;-54
2022/07/03 04:28:28;;;;;;;11.70;7.15;;;19.30;99.90;;;;;;5117767;28;20062;-54
2022/07/03 04:30:54;;;;;;;14.20;7.25;;;19.30;99.90;;;;;;5117793;28;20028;-54
2022/07/03 04:33:19;;;;;;;12.07;8.02;;;19.40;99.90;;;;;;5117461;28;20031;-54
2022/07/03 04:35:45;;;;;;;10.68;7.57;;;19.50;99.90;;;;;;5117711;28;20115;-54
2022/07/03 04:38:11;;;;;;;13.13;7.80;;;19.60;99.90;;;;;;5116372;28;20032;-54
2022/07/03 04:40:37;;;;;;;16.45;7.30;;;19.80;99.90;;;;;;5117612;28;20032;-54
2022/07/03 04:43:03;;;;;;;10.75;5.97;;;20.00;99.90;;;;;;5117383;28;20028;-54
2022/07/03 04:45:29;;;;;;;11.57;7.10;;;20.00;99.90;;;;;;5116338;28;20098;-54
2022/07/03 04:47:55;;;;;;;15.30;7.25;;;20.00;99.90;;;;;;5117323;28;20032;-54
2022/07/03 04:50:21;;;;;;;11.27;6.88;;;20.20;99.90;;;;;;5117283;28;20480;-54
2022/07/03 04:52:46;;;;;;;15.90;7.35;;;20.30;99.90;;;;;;5117195;28;20095;-54
2022/07/03 04:55:12;;;;;;;14.57;6.90;;;20.30;99.90;;;;;;5117120;28;20045;-54
2022/07/03 04:57:38;;;;;;;11.95;5.95;;;20.40;99.90;;;;;;5117181;28;20624;-54
2022/07/03 05:00:06;;;;;;;10.25;5.85;;;20.60;99.90;;;;;;5117143;28;20035;-54
2022/07/03 05:02:32;;;;;;;16.08;7.05;;;20.70;99.90;;;;;;5116816;28;20047;-54
2022/07/03 05:04:57;;;;;;;14.60;6.90;;;20.90;99.90;;;;;;5117136;28;20027;-54
2022/07/03 05:07:23;;;;;;;13.57;6.20;;;21.00;99.90;;;;;;5116750;28;20380;-54
2022/07/03 05:09:49;;;;;;;13.30;6.72;;;21.10;99.90;;;;;;5116959;28;20030;-54
2022/07/03 05:12:15;;;;;;;17.20;7.32;;;21.20;99.90;;;;;;5115543;28;20042;-54
2022/07/03 05:14:41;;;;;;;18.38;7.97;;;21.30;99.90;;;;;;5116808;28;20159;-54
2022/07/03 05:17:07;;;;;;;18.88;8.65;;;21.40;99.90;;;;;;5116720;28;20388;-54
2022/07/03 05:19:33;;;;;;;12.30;7.50;;;21.30;99.90;;;;;;5116673;28;20023;-54
2022/07/03 05:21:59;;;;;;;12.93;8.23;;;21.30;99.90;;;;;;5116635;28;20046;-54
2022/07/03 05:24:24;;;;;;;18.25;8.02;;;21.50;99.90;;;;;;5116514;28;20081;-54
2022/07/03 05:26:51;;;;;;;16.95;8.32;;;21.60;99.90;;;;;;5115391;28;20041;-54
2022/07/03 05:29:16;;;;;;;13.88;7.70;;;21.70;99.90;;;;;;5116541;28;20038;-54
2022/07/03 05:31:43;;;;;;;12.93;8.13;;;21.80;99.90;;;;;;5116275;28;20039;-54
2022/07/03 05:34:09;;;;;;;11.43;7.82;;;21.70;99.90;;;;;;5116275;28;20070;-54
2022/07/03 05:36:35;;;;;;;15.60;8.48;;;21.80;99.90;;;;;;5116476;28;20058;-54
2022/07/03 05:41:45;;;;;;;10.30;7.60;;;21.80;99.90;;;;;;5116324;28;20028;-54
2022/07/03 05:44:11;;;;;;;14.75;7.07;;;22.10;99.90;;;;;;5116276;28;20410;-54
2022/07/03 05:46:38;;;;;;;17.35;8.13;;;22.10;99.90;;;;;;5116231;28;20043;-54
2022/07/03 05:49:05;;;;;;;12.90;7.30;;;22.30;99.90;;;;;;5116269;28;20031;-54
2022/07/03 05:51:31;;;;;;;13.15;7.80;;;22.50;99.90;;;;;;5116120;28;20031;-54
2022/07/03 05:53:57;;;;;;;14.23;7.65;;;22.60;99.90;;;;;;5115860;28;20032;-54
2022/07/03 05:56:23;;;;;;;14.75;8.20;;;22.70;99.90;;;;;;5116040;28;20036;-54
2022/07/03 05:58:49;;;;;;;12.00;6.30;;;22.80;99.90;;;;;;5115971;28;20076;-54
2022/07/03 06:01:15;;;;;;;10.85;6.97;;;22.80;99.90;;;;;;5116000;28;20028;-54
2022/07/03 06:03:41;;;;;;;13.73;7.55;;;22.90;99.90;;;;;;5115776;28;20048;-54
2022/07/03 06:06:07;;;;;;;17.58;8.07;;;23.10;99.90;;;;;;5115975;28;20040;-54
2022/07/03 06:08:32;;;;;;;15.27;7.70;;;23.20;99.90;;;;;;5115826;28;20060;-54
2022/07/03 06:10:58;;;;;;;21.10;8.55;;;23.30;99.90;;;;;;5115793;28;20031;-54
2022/07/03 06:13:24;;;;;;;11.40;7.93;;;23.30;99.90;;;;;;5115718;28;20110;-54
2022/07/03 06:15:50;;;;;;;16.70;7.30;;;23.50;99.90;;;;;;5114569;28;20445;-54
2022/07/03 06:18:16;;;;;;;13.18;7.13;;;23.50;99.90;;;;;;5115332;28;20028;-54
2022/07/03 06:20:42;;;;;;;18.00;7.40;;;23.70;99.90;;;;;;5115505;28;20362;-54
2022/07/03 06:23:08;;;;;;;14.00;6.93;;;23.80;99.90;;;;;;5115690;28;20404;-54
2022/07/03 06:25:33;;;;;;;13.95;7.25;;;23.80;99.90;;;;;;5115662;28;20079;-54
2022/07/03 06:27:59;;;;;;;16.33;7.20;;;23.80;99.90;;;;;;5115623;28;20412;-54
2022/07/03 06:30:25;;;;;;;16.05;7.60;;;23.90;99.90;;;;;;5115483;28;20480;-54
2022/07/03 06:32:52;;;;;;;13.90;7.43;;;24.10;99.90;;;;;;5115354;28;20059;-54
2022/07/03 06:35:18;;;;;;;16.65;7.80;;;24.30;99.90;;;;;;5115315;28;20024;-54
2022/07/03 06:37:44;;;;;;;20.17;7.90;;;24.30;99.90;;;;;;5115379;28;20039;-54
2022/07/03 06:40:10;;;;;;;14.20;7.80;;;24.50;99.90;;;;;;5115402;28;20038;-54
2022/07/03 06:42:36;;;;;;;13.70;8.02;;;24.60;99.90;;;;;;5115145;28;20460;-54
2022/07/03 06:45:02;;;;;;;17.80;7.38;;;24.70;99.90;;;;;;5113862;28;20441;-54
2022/07/03 06:47:28;;;;;;;13.65;7.97;;;24.80;99.90;;;;;;5115329;28;20445;-54
2022/07/03 06:49:54;;;;;;;16.63;7.22;;;25.00;99.90;;;;;;5115144;28;20028;-54
2022/07/03 06:52:20;;;;;;;15.25;8.13;;;25.10;99.90;;;;;;5115248;28;20024;-54
2022/07/03 06:54:46;;;;;;;11.68;7.50;;;25.20;99.90;;;;;;5114728;28;20032;-54
2022/07/03 06:57:13;;;;;;;13.60;6.97;;;25.50;99.90;;;;;;5114950;28;20024;-54
2022/07/03 06:59:39;;;;;;;22.13;7.78;;;25.60;99.00;;;;;;5115180;28;20416;-54
2022/07/03 07:02:06;;;;;;;18.38;6.80;;;25.70;98.30;;;;;;5114816;28;20028;-55
2022/07/03 07:04:32;;;;;;;15.02;7.70;;;25.50;98.70;;;;;;5115013;28;20481;-54
2022/07/03 07:06:58;;;;;;;19.63;7.40;;;26.00;99.90;;;;;;5114909;28;20134;-54
2022/07/03 07:09:24;;;;;;;18.90;8.25;;;26.30;98.90;;;;;;5115067;28;20027;-54
2022/07/03 07:11:49;;;;;;;15.10;7.53;;;26.50;98.00;;;;;;5114904;28;20492;-54
2022/07/03 07:14:15;;;;;;;13.02;6.90;;;26.70;94.80;;;;;;5114808;28;20027;-54
2022/07/03 07:16:41;;;;;;;17.35;7.05;;;26.90;93.60;;;;;;5114888;28;20031;-54
2022/07/03 07:19:07;;;;;;;17.85;8.10;;;27.20;92.40;;;;;;5113494;28;20144;-54
2022/07/03 07:21:33;;;;;;;17.63;7.50;;;27.40;93.40;;;;;;5114898;28;20020;-54
2022/07/03 07:23:59;;;;;;;17.77;7.97;;;27.60;91.50;;;;;;5114695;28;20480;-54
2022/07/03 07:26:25;;;;;;;17.80;8.07;;;27.80;91.30;;;;;;5114801;28;20028;-54
2022/07/03 07:28:51;;;;;;;19.00;8.55;;;28.10;90.10;;;;;;5114774;28;20381;-55
2022/07/03 07:31:18;;;;;;;20.30;7.90;;;28.30;83.20;;;;;;5118026;28;20035;-54
2022/07/03 07:33:44;;;;;;;31.67;9.77;;;28.40;81.90;;;;;;5118603;28;20036;-54
2022/07/03 07:36:09;;;;;;;19.42;7.57;;;28.60;84.10;;;;;;5118795;28;20032;-55
2022/07/03 07:38:35;;;;;;;16.65;7.25;;;28.70;80.50;;;;;;5118810;28;20038;-55
2022/07/03 07:41:01;;;;;;;19.67;7.80;;;28.90;78.90;;;;;;5118553;28;20031;-55
2022/07/03 07:43:27;;;;;;;13.55;6.90;;;29.20;80.30;;;;;;5118629;28;20043;-55
2022/07/03 07:45:53;;;;;;;18.02;7.55;;;29.40;77.00;;;;;;5118540;28;20023;-55
2022/07/03 07:48:19;;;;;;;11.52;6.22;;;29.60;76.40;;;;;;5118494;28;20043;-55
2022/07/03 07:50:45;;;;;;;13.90;6.70;;;29.60;70.80;;;;;;5118461;28;20063;-55
2022/07/03 07:53:11;;;;;;;12.80;7.38;;;29.80;75.40;;;;;;5118327;28;20612;-55
2022/07/03 07:55:37;;;;;;;14.93;6.47;;;30.10;73.10;;;;;;5118362;28;20104;-55
2022/07/03 07:58:02;;;;;;;11.55;6.03;;;30.40;71.80;;;;;;5118345;28;20107;-55
2022/07/03 08:00:28;;;;;;;14.07;6.78;;;30.40;69.30;;;;;;5118290;28;20028;-55
2022/07/03 08:05:39;;;;;;;16.30;6.25;;;30.70;70.60;;;;;;5118422;28;20029;-55
2022/07/03 08:08:13;;;;;;;9.73;5.90;;;30.90;67.80;;;;;;5116675;28;20362;-55
2022/07/03 08:10:39;;;;;;;12.52;5.22;;;31.20;64.90;;;;;;5118111;28;20034;-55
2022/07/03 08:13:05;;;;;;;8.43;5.00;;;31.30;60.50;;;;;;5118015;28;20110;-55
2022/07/03 08:15:31;;;;;;;8.10;4.97;;;31.20;60.40;;;;;;5117929;28;20538;-55
2022/07/03 08:17:58;;;;;;;11.30;5.53;;;31.40;59.40;;;;;;5118056;28;20099;-55
2022/07/03 08:20:24;;;;;;;10.38;6.00;;;31.70;61.00;;;;;;5117866;28;20114;-55
2022/07/03 08:22:50;;;;;;;13.00;6.32;;;31.70;60.30;;;;;;5118009;28;20043;-55
2022/07/03 08:25:16;;;;;;;13.02;6.00;;;32.00;58.40;;;;;;5117735;28;20034;-55
2022/07/03 08:27:42;;;;;;;10.02;5.47;;;31.60;58.90;;;;;;5117811;28;20027;-55
2022/07/03 08:30:08;;;;;;;12.82;5.93;;;31.90;61.40;;;;;;5117755;28;20028;-55
2022/07/03 08:32:34;;;;;;;9.25;5.85;;;32.40;59.80;;;;;;5117644;28;20475;-55
2022/07/03 08:35:00;;;;;;;11.18;6.03;;;32.60;57.20;;;;;;5117470;28;20047;-55
2022/07/03 08:37:26;;;;;;;9.52;5.53;;;32.80;58.10;;;;;;5117647;28;20026;-55
2022/07/03 08:39:52;;;;;;;11.35;5.95;;;32.90;58.10;;;;;;5117541;28;20046;-55
2022/07/03 08:42:20;;;;;;;9.63;6.00;;;33.20;57.20;;;;;;5116885;28;20426;-55
2022/07/03 08:44:46;;;;;;;18.20;6.88;;;33.30;57.10;;;;;;5117257;28;20472;-55
2022/07/03 08:47:15;;;;;;;14.15;6.93;;;33.20;57.50;;;;;;5116116;28;20384;-55
2022/07/03 08:49:42;;;;;;;10.98;5.78;;;33.30;55.30;;;;;;5117318;28;20027;-55
2022/07/03 08:52:09;;;;;;;8.90;5.05;;;33.50;56.30;;;;;;5117284;28;20392;-55
2022/07/03 08:54:35;;;;;;;8.30;5.47;;;33.80;54.30;;;;;;5117243;28;20031;-55
2022/07/03 08:57:02;;;;;;;11.40;4.90;;;33.90;53.90;;;;;;5117256;28;20027;-55
2022/07/03 08:59:36;;;;;;;11.38;5.32;;;33.80;53.40;;;;;;5117173;28;20024;-55
2022/07/03 09:02:07;;;;;;;17.90;5.70;;;33.50;53.30;;;;;;5116915;28;20027;-55
2022/07/03 09:04:33;;;;;;;;;;;33.90;53.20;;;;;;5117522;28;20028;-55
2022/07/03 09:07:00;;;;;;;12.82;6.13;;;33.50;54.40;;;;;;5117177;28;19918;-55
2022/07/03 09:09:26;;;;;;;6.93;5.28;;;34.10;54.20;;;;;;5117075;28;20385;-55
2022/07/03 09:11:52;;;;;;;8.82;5.75;;;34.30;55.10;;;;;;5117068;28;20020;-55
2022/07/03 09:14:19;;;;;;;14.75;6.75;;;34.60;53.00;;;;;;5116715;28;20057;-55
2022/07/03 09:16:45;;;;;;;10.48;6.50;;;34.70;52.80;;;;;;5116734;28;20024;-55
2022/07/03 09:19:11;;;;;;;12.57;5.90;;;34.40;53.30;;;;;;5116623;28;20028;-55
2022/07/03 09:21:41;;;;;;;13.70;5.97;;;34.00;52.70;;;;;;5116813;28;20053;-55
2022/07/03 09:24:09;;;;;;;7.30;4.82;;;33.20;51.90;;;;;;5116637;28;20058;-55
2022/07/03 09:26:36;;;;;;;12.75;6.03;;;32.90;54.10;;;;;;5116634;28;20024;-55
2022/07/03 09:29:03;;;;;;;12.70;5.00;;;33.20;52.80;;;;;;5116637;28;20139;-55
2022/07/03 09:31:30;;;;;;;13.05;6.50;;;33.00;54.10;;;;;;5116583;28;20039;-55
2022/07/03 09:34:09;;;;;;;13.63;5.43;;;33.90;53.30;;;;;;5116534;28;20487;-55
2022/07/03 09:36:43;;;;;;;6.72;5.07;;;34.50;52.80;;;;;;5116493;28;20024;-55
2022/07/03 09:39:21;;;;;;;8.25;4.82;;;34.20;51.80;;;;;;5115171;28;20041;-55
2022/07/03 09:42:04;;;;;;;9.30;5.43;;;34.70;50.70;;;;;;5114984;28;20035;-55
2022/07/03 09:44:37;;;;;;;9.50;5.32;;;35.10;52.00;;;;;;5116218;28;20032;-55
2022/07/03 09:47:20;;;;;;;6.63;4.40;;;35.10;52.30;;;;;;5116288;28;20469;-55
2022/07/03 09:49:54;;;;;;;10.98;4.20;;;35.30;48.60;;;;;;5116158;28;20027;-55
2022/07/03 09:52:36;;;;;;;6.78;4.38;;;34.50;48.70;;;;;;5116130;28;20073;-55
2022/07/03 09:55:17;;;;;;;7.28;4.07;;;34.10;48.80;;;;;;5115041;28;20069;-55
2022/07/03 09:57:44;;;;;;;11.25;4.15;;;33.50;50.30;;;;;;5115997;28;20028;-55
2022/07/03 10:00:26;;;;;;;6.65;3.50;;;34.60;50.40;;;;;;5115978;28;20106;-55
2022/07/03 10:02:59;;;;;;;8.15;3.80;;;35.30;48.80;;;;;;5115753;28;20079;-55
2022/07/03 10:05:33;;;;;;;11.52;4.15;;;35.60;48.80;;;;;;5115927;28;20073;-55
2022/07/03 10:08:02;;;;;;;7.18;4.10;;;35.70;47.20;;;;;;5115633;28;20484;-55
2022/07/03 10:10:30;;;;;;;11.27;4.15;;;35.60;46.60;;;;;;5115743;28;20058;-55
2022/07/03 10:12:57;;;;;;;9.45;4.03;;;35.90;46.90;;;;;;5115477;28;20020;-55
2022/07/03 10:15:25;;;;;;;5.03;3.30;;;36.00;46.60;;;;;;5114360;28;20050;-55
2022/07/03 10:17:53;;;;;;;7.65;3.70;;;36.00;45.40;;;;;;5115646;28;20131;-55
2022/07/03 10:20:32;;;;;;;8.70;4.22;;;35.80;44.90;;;;;;5115555;28;20031;-55
2022/07/03 10:22:58;;;;;;;7.35;3.88;;;35.70;46.90;;;;;;5115530;28;20028;-55
2022/07/03 10:25:24;;;;;;;7.82;4.05;;;36.10;45.60;;;;;;5115384;28;20028;-55
2022/07/03 10:27:50;;;;;;;5.75;3.92;;;34.80;46.40;;;;;;5115599;28;20026;-55
2022/07/03 10:30:22;;;;;;;7.88;3.40;;;35.50;46.70;;;;;;5115407;28;20201;-55
2022/07/03 10:32:51;;;;;;;5.10;2.92;;;36.20;45.40;;;;;;5096656;28;20046;-55
2022/07/03 10:35:25;;;;;;;5.63;3.00;;;36.40;44.30;;;;;;5115357;28;20035;-55
2022/07/03 10:38:00;;;;;;;5.32;3.22;;;36.70;43.20;;;;;;5114115;28;20099;-55
2022/07/03 10:46:26;;;;;;;7.78;3.25;;;35.40;47.60;;;;;;5115183;28;20038;-55
2022/07/03 10:49:05;;;;;;;6.35;2.78;;;35.90;43.80;;;;;;5115194;28;20434;-55
2022/07/03 10:51:50;;;;;;;;;;;36.80;45.50;;;;;;5115617;28;20038;-55
2022/07/03 10:54:25;;;;;;;9.57;4.03;;;35.50;42.60;;;;;;5115086;28;19947;-55
2022/07/03 10:57:00;;;;;;;5.60;3.00;;;35.50;43.20;;;;;;5115086;28;20545;-55
2022/07/03 10:59:32;;;;;;;7.30;3.13;;;36.60;46.00;;;;;;5115088;28;20373;-55
2022/07/03 11:02:23;;;;;;;9.93;3.72;;;37.00;43.20;;;;;;5115061;28;20043;-55
2022/07/03 11:04:59;;;;;;;5.43;3.22;;;36.70;41.60;;;;;;5114858;28;20043;-55
2022/07/03 11:07:25;;;;;;;7.07;3.33;;;36.80;41.00;;;;;;5115028;28;20407;-55
2022/07/03 11:10:12;;;;;;;12.38;3.65;;;37.10;42.40;;;;;;5114957;28;20027;-55
2022/07/03 11:12:57;;;;;;;6.85;3.45;;;37.20;41.60;;;;;;5114952;28;20092;-55
2022/07/03 11:15:40;;;;;;;10.25;3.83;;;37.00;40.60;;;;;;5114761;28;20533;-55
2022/07/03 11:20:57;;;;;;;6.60;3.30;;;36.70;41.20;;;;;;5114932;28;20032;-55
2022/07/03 11:23:26;;;;;;;4.97;3.78;;;35.50;42.60;;;;;;5107114;28;20040;-55
2022/07/03 11:25:55;;;;;;;4.85;3.75;;;35.80;43.50;;;;;;5114732;28;20027;-55
2022/07/03 11:28:32;;;;;;;8.32;3.50;;;36.40;43.30;;;;;;5114924;28;20042;-55
2022/07/03 11:31:13;;;;;;;11.25;3.95;;;36.60;42.90;;;;;;5114782;28;20030;-55
2022/07/03 11:33:42;;;;;;;9.70;3.47;;;35.70;41.50;;;;;;5115025;28;20055;-55
2022/07/03 11:36:17;;;;;;;8.50;3.60;;;35.90;43.80;;;;;;5114628;28;20035;-55
2022/07/03 11:38:57;;;;;;;7.25;3.38;;;35.90;43.40;;;;;;5114721;28;20063;-55
2022/07/03 11:41:25;;;;;;;7.22;3.38;;;36.60;42.30;;;;;;5114685;28;20098;-55
2022/07/03 11:43:56;;;;;;;7.75;4.00;;;36.40;42.10;;;;;;5114527;28;20073;-55
2022/07/03 11:46:26;;;;;;;9.82;3.35;;;36.30;42.00;;;;;;5114663;28;20028;-55
2022/07/03 11:49:11;;;;;;;8.20;3.83;;;36.70;44.00;;;;;;5114488;28;20028;-55
2022/07/03 11:51:40;;;;;;;7.90;3.90;;;36.60;43.30;;;;;;5114633;28;20028;-55
2022/07/03 11:54:06;;;;;;;8.25;3.95;;;37.30;41.30;;;;;;5114314;28;20381;-55
2022/07/03 11:56:34;;;;;;;5.32;3.53;;;37.10;42.10;;;;;;5114515;28;20028;-55
2022/07/03 11:59:05;;;;;;;6.05;3.92;;;37.00;41.10;;;;;;5114424;28;20530;-55
2022/07/03 12:01:34;;;;;;;9.73;4.00;;;37.20;42.60;;;;;;5114341;28;20073;-55
2022/07/03 12:04:13;;;;;;;9.77;4.00;;;36.60;40.90;;;;;;5114323;28;20048;-55
2022/07/03 12:06:43;;;;;;;9.23;3.72;;;36.70;42.40;;;;;;5114244;28;20528;-55
2022/07/03 12:09:17;;;;;;;7.63;3.88;;;36.70;41.30;;;;;;5114402;28;20106;-55
2022/07/03 12:11:52;;;;;;;13.73;4.82;;;36.70;40.30;;;;;;5114195;28;20051;-55
2022/07/03 12:14:32;;;;;;;8.55;4.18;;;37.40;42.00;;;;;;5114288;28;20023;-55
2022/07/03 12:16:58;;;;;;;10.05;3.85;;;36.70;41.40;;;;;;5115101;28;20024;-55
2022/07/03 12:19:24;;;;;;;9.30;3.92;;;37.50;43.70;;;;;;5117984;28;20020;-55
2022/07/03 12:21:50;;;;;;;11.32;4.13;;;37.40;41.00;;;;;;5117863;28;20165;-55
2022/07/03 12:24:16;;;;;;;6.15;3.85;;;37.50;42.10;;;;;;5117873;28;20027;-55
2022/07/03 12:26:42;;;;;;;6.93;4.07;;;36.20;42.50;;;;;;5117739;28;20107;-55
2022/07/03 12:29:10;;;;;;;10.88;3.70;;;36.50;43.70;;;;;;5117737;28;20061;-55
2022/07/03 12:31:43;;;;;;;7.57;4.05;;;37.30;42.40;;;;;;5117659;28;20027;-55
2022/07/03 12:34:11;;;;;;;13.02;4.20;;;36.70;40.60;;;;;;5117648;28;20036;-55
2022/07/03 12:36:37;;;;;;;7.22;3.85;;;36.80;44.00;;;;;;5117563;28;20047;-55
2022/07/03 12:39:03;;;;;;;5.63;4.20;;;35.60;43.60;;;;;;5117544;28;20193;-55
2022/07/03 12:41:29;;;;;;;8.23;5.68;;;36.00;44.30;;;;;;5117546;28;20016;-55
2022/07/03 12:43:59;;;;;;;7.40;4.55;;;36.20;43.20;;;;;;5117497;28;20020;-55
2022/07/03 12:46:31;;;;;;;7.00;4.25;;;36.00;43.70;;;;;;5117423;28;20030;-55
2022/07/03 12:48:58;;;;;;;12.27;5.07;;;35.90;43.70;;;;;;5117373;28;20043;-55
2022/07/03 12:51:40;;;;;;;10.05;4.78;;;36.60;42.70;;;;;;5117228;28;20115;-55
2022/07/03 12:54:08;;;;;;;13.82;4.85;;;36.80;41.30;;;;;;5117300;28;20028;-55
2022/07/03 12:56:34;;;;;;;11.68;4.13;;;36.00;42.40;;;;;;5117141;28;20038;-55
2022/07/03 13:02:05;;;;;;;12.18;4.57;;;36.30;44.10;;;;;;5093381;28;20481;-55
2022/07/03 13:04:36;;;;;;;7.50;4.82;;;36.20;45.00;;;;;;5117038;28;20054;-55
2022/07/03 13:07:07;;;;;;;10.10;4.60;;;36.80;45.10;;;;;;5117002;28;20048;-55
2022/07/03 13:09:37;;;;;;;8.45;4.60;;;37.20;43.80;;;;;;5117014;28;20031;-55
2022/07/03 13:12:04;;;;;;;10.13;4.75;;;37.30;41.50;;;;;;5116975;28;20050;-55
2022/07/03 13:14:30;;;;;;;14.65;5.35;;;36.80;41.70;;;;;;5116753;28;20043;-55